Time;durP1;ratioP1;P1;durP2;ratioP2;P2;SDS_P1;SDS_P2;PMS_P1;PMS_P2;Temp;Humidity;BMP_temperature;BMP_pressure;BME280_temperature;BME280_humidity;BME280_pressure;Samples;Min_cycle;Max_cycle;Signal;HPM_P1;HPM_P2
2021/06/23 00:01:10;;;;;;;4.22;2.40;;;20.20;1.00;;;;;;5076986;28;20064;-93
2021/06/23 00:03:35;;;;;;;4.45;2.53;;;20.30;1.00;;;;;;5076774;28;20040;-94
2021/06/23 00:06:01;;;;;;;4.35;2.70;;;20.10;1.00;;;;;;5076704;28;20024;-93
2021/06/23 00:08:27;;;;;;;6.15;2.85;;;20.10;1.00;;;;;;5077184;28;20497;-93
2021/06/23 00:10:53;;;;;;;3.22;2.92;;;20.00;1.00;;;;;;5076325;28;20020;-93
2021/06/23 00:13:20;;;;;;;4.97;2.88;;;19.90;1.00;;;;;;5075875;28;20144;-94
2021/06/23 00:15:45;;;;;;;3.90;2.92;;;19.90;1.00;;;;;;5076181;28;20036;-93
2021/06/23 00:18:11;;;;;;;3.80;3.40;;;19.80;1.00;;;;;;5076151;28;20068;-93
2021/06/23 00:20:37;;;;;;;5.90;5.10;;;19.80;1.00;;;;;;5077324;28;20360;-94
2021/06/23 00:23:03;;;;;;;4.10;3.72;;;19.60;1.00;;;;;;5076484;28;20035;-93
2021/06/23 00:25:29;;;;;;;4.22;3.83;;;19.80;1.00;;;;;;5076365;28;20043;-94
2021/06/23 00:27:55;;;;;;;4.15;3.42;;;19.80;1.00;;;;;;5074842;28;20408;-93
2021/06/23 00:30:21;;;;;;;10.25;3.97;;;19.90;1.00;;;;;;5076956;28;20022;-93
2021/06/23 00:32:51;;;;;;;8.32;4.30;;;20.00;1.00;;;;;;5076348;28;20025;-93
2021/06/23 00:35:16;;;;;;;4.32;3.92;;;20.00;1.00;;;;;;5074761;28;20063;-93
2021/06/23 00:37:42;;;;;;;9.13;4.15;;;19.90;1.00;;;;;;5076047;28;20064;-93
2021/06/23 00:40:09;;;;;;;5.68;4.40;;;19.90;1.00;;;;;;5076502;28;20473;-92
2021/06/23 00:42:35;;;;;;;5.07;3.85;;;20.00;1.00;;;;;;5075579;28;20477;-94
2021/06/23 00:45:06;;;;;;;4.45;4.00;;;19.90;1.00;;;;;;5076240;28;20017;-92
2021/06/23 00:47:32;;;;;;;5.15;3.97;;;19.90;1.00;;;;;;5075485;28;20082;-94
2021/06/23 00:49:58;;;;;;;6.07;4.28;;;19.90;1.00;;;;;;5075824;28;20492;-93
2021/06/23 00:52:24;;;;;;;6.18;3.90;;;19.80;1.00;;;;;;5075705;28;20043;-93
2021/06/23 00:54:51;;;;;;;4.15;3.70;;;19.80;1.00;;;;;;5075834;28;20025;-93
2021/06/23 00:57:18;;;;;;;5.38;4.03;;;19.80;1.00;;;;;;5074389;28;20515;-93
2021/06/23 00:59:45;;;;;;;5.55;4.03;;;19.70;1.00;;;;;;5076256;28;20025;-93
2021/06/23 01:02:12;;;;;;;5.68;4.15;;;19.70;1.00;;;;;;5075427;28;20151;-93
2021/06/23 01:04:39;;;;;;;4.07;3.78;;;19.70;1.00;;;;;;5075443;28;20473;-93
2021/06/23 01:07:05;;;;;;;5.60;3.75;;;19.70;1.00;;;;;;5074858;28;20081;-93
2021/06/23 01:09:30;;;;;;;6.30;4.63;;;19.70;1.00;;;;;;5090704;28;20020;-93
2021/06/23 01:12:02;;;;;;;5.88;4.82;;;19.60;1.00;;;;;;5074821;28;20042;-93
2021/06/23 01:14:33;;;;;;;5.63;4.95;;;19.60;1.00;;;;;;5073820;28;20043;-93
2021/06/23 01:17:02;;;;;;;6.47;5.28;;;19.60;1.00;;;;;;5075251;28;20037;-93
2021/06/23 01:19:32;;;;;;;5.15;4.70;;;19.60;1.00;;;;;;5075541;28;20024;-93
2021/06/23 01:21:58;;;;;;;5.30;4.53;;;19.60;1.00;;;;;;5074927;28;20029;-93
2021/06/23 01:24:23;;;;;;;5.90;4.40;;;19.50;1.00;;;;;;5074835;28;20031;-93
2021/06/23 01:26:49;;;;;;;5.30;4.22;;;19.40;1.00;;;;;;5074892;28;20032;-93
2021/06/23 01:29:15;;;;;;;5.97;4.32;;;19.40;1.00;;;;;;5074980;28;20040;-93
2021/06/23 01:31:40;;;;;;;5.47;3.65;;;19.30;1.00;;;;;;5075294;28;20028;-93
2021/06/23 01:34:06;;;;;;;7.30;4.28;;;19.30;1.00;;;;;;5091094;28;20162;-94
2021/06/23 01:36:33;;;;;;;5.80;3.65;;;19.20;1.00;;;;;;5074851;28;20112;-93
2021/06/23 01:38:59;;;;;;;5.10;3.55;;;19.10;1.00;;;;;;5073684;28;20032;-93
2021/06/23 01:41:25;;;;;;;10.20;3.40;;;19.00;1.00;;;;;;5090225;28;20025;-93
2021/06/23 01:43:51;;;;;;;5.68;3.22;;;19.00;1.00;;;;;;5075100;28;20111;-93
2021/06/23 01:46:17;;;;;;;6.90;3.08;;;19.00;1.00;;;;;;5074605;28;20644;-93
2021/06/23 01:48:42;;;;;;;7.55;3.25;;;19.00;1.00;;;;;;5074815;28;20027;-93
2021/06/23 01:51:08;;;;;;;6.63;3.63;;;19.20;1.00;;;;;;5075240;28;20103;-93
2021/06/23 01:53:35;;;;;;;4.38;3.05;;;19.10;1.00;;;;;;5075096;28;20025;-93
2021/06/23 01:56:01;;;;;;;6.38;2.90;;;19.10;1.00;;;;;;5074249;28;20032;-93
2021/06/23 01:58:27;;;;;;;3.50;2.95;;;19.00;1.00;;;;;;5074756;28;20115;-94
2021/06/23 02:01:08;;;;;;;3.28;2.70;;;19.00;1.00;;;;;;5074494;28;20047;-93
2021/06/23 02:03:46;;;;;;;3.45;2.80;;;19.00;1.00;;;;;;5060225;28;20081;-93
2021/06/23 02:06:48;;;;;;;3.78;2.80;;;18.90;1.00;;;;;;5074168;28;20024;-93
2021/06/23 02:09:49;;;;;;;3.75;2.90;;;18.90;1.00;;;;;;5056953;28;20152;-94
2021/06/23 02:12:29;;;;;;;5.97;2.95;;;18.80;1.00;;;;;;4994745;28;20629;-93
2021/06/23 02:15:00;;;;;;;3.83;2.53;;;18.90;1.00;;;;;;4993078;28;20054;-93
2021/06/23 02:17:27;;;;;;;3.20;2.55;;;18.90;1.00;;;;;;4992272;28;20049;-93
2021/06/23 02:19:54;;;;;;;4.93;2.50;;;18.90;1.00;;;;;;4997244;28;20127;-93
2021/06/23 02:22:26;;;;;;;5.35;2.80;;;18.90;1.00;;;;;;4995829;28;20038;-94
2021/06/23 02:25:06;;;;;;;6.53;2.85;;;18.80;1.00;;;;;;4992751;28;20108;-93
2021/06/23 02:27:32;;;;;;;5.70;2.70;;;18.80;1.00;;;;;;4978724;28;20045;-93
2021/06/23 02:29:57;;;;;;;3.72;2.65;;;18.80;1.00;;;;;;4973785;28;20489;-93
2021/06/23 02:32:27;;;;;;;6.85;2.50;;;18.70;1.00;;;;;;4996527;28;20129;-94
2021/06/23 02:34:55;;;;;;;8.95;2.45;;;18.70;1.00;;;;;;4996598;28;20073;-93
2021/06/23 02:37:22;;;;;;;4.43;2.60;;;18.80;1.00;;;;;;4992543;28;20491;-94
2021/06/23 02:39:49;;;;;;;3.50;2.60;;;18.60;1.00;;;;;;4995816;28;20029;-94
2021/06/23 02:42:15;;;;;;;4.70;2.70;;;18.50;1.00;;;;;;5012913;28;20092;-94
2021/06/23 02:44:41;;;;;;;3.67;2.65;;;18.40;1.00;;;;;;4994171;28;20026;-94
2021/06/23 02:47:07;;;;;;;4.38;2.33;;;18.50;1.00;;;;;;5013000;28;20048;-94
2021/06/23 02:49:33;;;;;;;4.25;2.50;;;18.40;1.00;;;;;;5072361;28;20058;-93
2021/06/23 02:51:59;;;;;;;7.82;2.60;;;18.20;1.00;;;;;;5072402;28;20032;-94
2021/06/23 02:54:25;;;;;;;3.50;2.40;;;18.30;1.00;;;;;;5074190;28;20031;-94
2021/06/23 02:56:52;;;;;;;4.65;2.60;;;18.30;1.00;;;;;;5072441;28;20040;-93
2021/06/23 02:59:21;;;;;;;5.43;2.65;;;18.30;1.00;;;;;;5072342;28;20427;-93
2021/06/23 03:01:50;;;;;;;3.97;2.70;;;18.30;1.00;;;;;;5073911;28;20119;-93
2021/06/23 03:04:16;;;;;;;5.47;2.90;;;18.10;1.00;;;;;;5072533;28;20056;-91
2021/06/23 03:06:41;;;;;;;7.45;2.97;;;18.20;1.00;;;;;;5072375;28;20032;-94
2021/06/23 03:09:07;;;;;;;6.60;2.85;;;18.20;1.00;;;;;;5073303;28;20020;-94
2021/06/23 03:11:34;;;;;;;3.63;2.60;;;18.20;1.00;;;;;;5071963;28;20024;-94
2021/06/23 03:14:00;;;;;;;5.43;2.80;;;18.10;1.00;;;;;;5073151;28;20431;-94
2021/06/23 03:16:26;;;;;;;4.35;2.58;;;18.10;1.00;;;;;;5072976;28;20120;-94
2021/06/23 03:18:53;;;;;;;3.20;2.58;;;18.20;1.00;;;;;;5072266;28;20113;-94
2021/06/23 03:21:19;;;;;;;4.55;2.30;;;18.20;1.00;;;;;;5072865;28;20028;-94
2021/06/23 03:23:46;;;;;;;2.97;2.58;;;18.00;1.00;;;;;;5073935;28;20036;-94
2021/06/23 03:26:12;;;;;;;5.45;2.88;;;17.90;1.00;;;;;;5073299;28;20029;-94
2021/06/23 03:28:38;;;;;;;4.43;3.20;;;18.00;1.00;;;;;;5074381;28;20111;-94
2021/06/23 03:31:04;;;;;;;4.18;2.67;;;18.10;1.00;;;;;;5076987;28;20032;-94
2021/06/23 03:33:30;;;;;;;3.67;2.35;;;18.20;1.00;;;;;;5077530;28;20404;-94
2021/06/23 03:35:56;;;;;;;5.53;2.80;;;18.10;1.00;;;;;;5077098;28;20020;-94
2021/06/23 03:38:22;;;;;;;6.40;2.70;;;18.20;1.00;;;;;;5077897;28;20028;-93
2021/06/23 03:40:48;;;;;;;3.97;3.03;;;18.20;1.00;;;;;;5076882;28;20025;-94
2021/06/23 03:43:13;;;;;;;6.82;3.70;;;18.20;1.00;;;;;;5092785;28;20521;-94
2021/06/23 03:45:39;;;;;;;4.53;3.67;;;18.10;1.00;;;;;;5077721;28;20488;-94
2021/06/23 03:48:05;;;;;;;5.72;3.60;;;18.10;1.00;;;;;;5076103;28;20137;-94
2021/06/23 03:50:32;;;;;;;6.88;4.05;;;18.10;1.00;;;;;;5077556;28;20048;-94
2021/06/23 03:52:58;;;;;;;6.38;4.07;;;18.10;1.00;;;;;;5077172;28;20072;-94
2021/06/23 03:55:27;;;;;;;8.30;4.40;;;18.20;1.00;;;;;;5076691;28;20020;-95
2021/06/23 03:57:54;;;;;;;7.80;3.90;;;18.20;1.00;;;;;;5077316;28;20036;-94
2021/06/23 04:00:22;;;;;;;4.72;3.60;;;18.30;1.00;;;;;;5076036;28;22359;-95
2021/06/23 04:02:48;;;;;;;6.90;4.03;;;18.40;1.00;;;;;;5076467;28;20564;-93
2021/06/23 04:05:14;;;;;;;3.97;3.47;;;18.40;1.00;;;;;;5074799;28;20075;-94
2021/06/23 04:07:40;;;;;;;6.57;3.50;;;18.50;1.00;;;;;;5076676;28;20408;-94
2021/06/23 04:10:08;;;;;;;4.10;3.13;;;18.90;1.00;;;;;;5092784;28;20108;-95
2021/06/23 04:12:34;;;;;;;5.07;3.33;;;18.70;1.00;;;;;;5076664;28;20465;-94
2021/06/23 04:15:00;;;;;;;6.25;3.22;;;18.80;1.00;;;;;;5076846;28;20118;-95
2021/06/23 04:17:25;;;;;;;4.10;3.10;;;18.80;1.00;;;;;;5077002;28;20039;-95
2021/06/23 04:19:51;;;;;;;4.93;2.92;;;18.80;1.00;;;;;;5074325;28;20032;-94
2021/06/23 04:22:17;;;;;;;4.15;3.30;;;18.80;1.00;;;;;;5076452;28;20063;-94
2021/06/23 04:24:42;;;;;;;5.60;3.20;;;18.90;1.00;;;;;;5076351;28;20031;-93
2021/06/23 04:27:08;;;;;;;5.35;3.00;;;18.80;1.00;;;;;;5076311;28;20039;-95
2021/06/23 04:29:34;;;;;;;6.05;3.05;;;19.20;1.00;;;;;;5077327;28;20481;-94
2021/06/23 04:32:00;;;;;;;5.50;2.95;;;19.00;1.00;;;;;;5076289;28;20029;-95
2021/06/23 04:34:25;;;;;;;7.70;3.10;;;19.00;1.00;;;;;;5075567;28;20028;-95
2021/06/23 04:36:51;;;;;;;4.25;2.70;;;18.90;1.00;;;;;;5075920;28;20522;-94
2021/06/23 04:39:17;;;;;;;4.88;3.10;;;19.00;1.00;;;;;;5072966;28;20021;-94
2021/06/23 04:41:43;;;;;;;5.45;3.22;;;19.20;1.00;;;;;;5075580;28;20036;-94
2021/06/23 04:44:09;;;;;;;6.05;3.05;;;19.20;1.00;;;;;;5074881;28;20139;-94
2021/06/23 04:46:34;;;;;;;4.13;3.03;;;19.20;1.00;;;;;;5074857;28;20031;-94
2021/06/23 04:49:01;;;;;;;4.60;3.22;;;19.30;1.00;;;;;;5074089;28;20025;-94
2021/06/23 04:51:27;;;;;;;5.15;3.40;;;19.30;1.00;;;;;;5074762;28;20509;-94
2021/06/23 04:53:53;;;;;;;3.95;3.20;;;19.40;1.00;;;;;;5075882;28;20035;-94
2021/06/23 04:56:19;;;;;;;5.95;3.50;;;18.90;1.00;;;;;;5075536;28;20040;-93
2021/06/23 04:58:45;;;;;;;5.32;3.55;;;19.10;1.00;;;;;;5075436;28;20032;-94
2021/06/23 05:01:10;;;;;;;6.47;3.63;;;19.10;1.00;;;;;;5075809;28;20439;-94
2021/06/23 05:03:36;;;;;;;5.32;3.80;;;19.30;1.00;;;;;;5074132;28;20154;-94
2021/06/23 05:06:02;;;;;;;7.40;3.60;;;18.90;1.00;;;;;;5074627;28;20032;-94
2021/06/23 05:08:28;;;;;;;10.18;4.32;;;19.10;1.00;;;;;;5075078;28;20036;-94
2021/06/23 05:10:55;;;;;;;4.88;3.85;;;19.10;1.00;;;;;;5074666;28;20475;-94
2021/06/23 05:13:21;;;;;;;6.82;4.20;;;19.10;1.00;;;;;;5075098;28;20497;-94
2021/06/23 05:15:47;;;;;;;6.00;5.40;;;19.10;1.00;;;;;;5074439;28;20041;-94
2021/06/23 05:18:14;;;;;;;7.80;5.65;;;19.10;1.00;;;;;;5073903;28;20520;-94
2021/06/23 05:20:40;;;;;;;6.53;4.72;;;19.00;1.00;;;;;;5075252;28;20021;-94
2021/06/23 05:23:05;;;;;;;8.00;3.58;;;19.20;1.00;;;;;;5074121;28;20039;-95
2021/06/23 05:25:31;;;;;;;5.47;3.53;;;19.30;1.00;;;;;;5073895;28;20066;-95
2021/06/23 05:27:57;;;;;;;5.47;3.10;;;19.30;1.00;;;;;;5075993;28;20102;-94
2021/06/23 05:30:22;;;;;;;3.30;3.00;;;19.30;1.00;;;;;;5074663;28;20111;-94
2021/06/23 05:32:48;;;;;;;6.70;3.45;;;19.30;1.00;;;;;;5074980;28;20054;-94
2021/06/23 05:35:14;;;;;;;4.57;3.03;;;19.30;1.00;;;;;;5075132;28;20053;-93
2021/06/23 05:37:40;;;;;;;5.13;3.00;;;19.30;1.00;;;;;;5077162;28;20043;-93
2021/06/23 05:40:06;;;;;;;6.32;3.47;;;19.40;1.00;;;;;;5074631;28;20028;-93
2021/06/23 05:42:31;;;;;;;4.75;3.00;;;19.50;1.00;;;;;;5073157;28;20035;-93
2021/06/23 05:44:57;;;;;;;8.60;2.85;;;19.70;1.00;;;;;;5073361;28;20048;-92
2021/06/23 05:47:23;;;;;;;6.70;3.17;;;19.70;1.00;;;;;;5074687;28;20025;-94
2021/06/23 05:49:49;;;;;;;7.18;3.30;;;19.60;1.00;;;;;;5072922;28;20507;-92
2021/06/23 05:52:14;;;;;;;6.38;4.03;;;19.80;1.00;;;;;;5089885;28;20111;-93
2021/06/23 05:54:40;;;;;;;6.88;3.58;;;19.80;1.00;;;;;;5074324;28;20033;-92
2021/06/23 05:57:06;;;;;;;6.45;3.30;;;19.80;1.00;;;;;;5074642;28;20040;-91
2021/06/23 05:59:31;;;;;;;7.10;3.83;;;19.60;1.00;;;;;;5072851;28;20059;-93
2021/06/23 06:01:57;;;;;;;5.00;3.90;;;19.60;1.00;;;;;;5074383;28;20028;-93
2021/06/23 06:04:23;;;;;;;6.35;3.55;;;19.70;1.00;;;;;;5074760;28;20124;-92
2021/06/23 06:06:48;;;;;;;7.30;3.72;;;19.90;1.00;;;;;;5072953;28;20021;-93
2021/06/23 06:09:14;;;;;;;5.47;3.30;;;20.10;1.00;;;;;;5073945;28;20090;-92
2021/06/23 06:11:40;;;;;;;8.00;3.17;;;20.20;1.00;;;;;;5073341;28;20035;-92
2021/06/23 06:14:05;;;;;;;6.32;3.45;;;20.20;1.00;;;;;;5067024;28;20115;-91
2021/06/23 06:16:32;;;;;;;8.25;3.10;;;20.50;1.00;;;;;;5067844;28;20024;-94
2021/06/23 06:18:58;;;;;;;5.18;2.95;;;20.40;1.00;;;;;;5074280;28;20037;-96
2021/06/23 06:21:24;;;;;;;9.95;3.20;;;20.40;1.00;;;;;;5076107;28;20046;-95
2021/06/23 06:23:51;;;;;;;3.33;2.53;;;20.40;1.00;;;;;;5077018;28;20396;-94
2021/06/23 06:26:17;;;;;;;4.43;2.50;;;20.40;1.00;;;;;;5073460;28;20098;-94
2021/06/23 06:28:43;;;;;;;5.30;2.70;;;20.50;1.00;;;;;;5072135;28;20024;-94
2021/06/23 06:31:09;;;;;;;13.65;2.90;;;20.60;1.00;;;;;;5072589;28;20469;-94
2021/06/23 06:33:35;;;;;;;5.22;3.35;;;20.70;1.00;;;;;;5072438;28;20035;-93
2021/06/23 06:36:01;;;;;;;6.47;3.10;;;20.80;1.00;;;;;;5074427;28;20021;-95
2021/06/23 06:38:28;;;;;;;5.97;2.83;;;20.60;1.00;;;;;;5054168;28;20053;-96
2021/06/23 06:40:54;;;;;;;8.27;3.15;;;20.60;1.00;;;;;;5053232;28;20354;-95
2021/06/23 06:43:21;;;;;;;3.95;2.90;;;20.60;1.00;;;;;;5052089;28;20111;-95
2021/06/23 06:45:48;;;;;;;4.90;2.72;;;20.60;1.00;;;;;;5054093;28;20397;-95
2021/06/23 06:48:14;;;;;;;5.78;2.58;;;20.70;1.00;;;;;;5052472;28;20041;-95
2021/06/23 06:50:40;;;;;;;3.92;2.60;;;20.70;1.00;;;;;;5052600;28;20021;-91
2021/06/23 06:53:05;;;;;;;4.70;2.60;;;20.70;1.00;;;;;;5053748;28;20040;-96
2021/06/23 06:55:31;;;;;;;2.85;2.65;;;20.80;1.00;;;;;;5052706;28;20028;-96
2021/06/23 06:57:57;;;;;;;4.43;2.92;;;21.00;1.00;;;;;;5052407;28;20227;-96
2021/06/23 07:00:24;;;;;;;3.78;2.95;;;21.10;1.00;;;;;;5052519;28;20025;-96
2021/06/23 07:02:52;;;;;;;7.45;3.60;;;21.30;1.00;;;;;;5041973;28;20105;-96
2021/06/23 07:05:18;;;;;;;7.85;3.45;;;21.10;1.00;;;;;;5059748;28;20041;-96
2021/06/23 07:07:44;;;;;;;6.22;3.50;;;20.90;1.00;;;;;;5053522;28;20033;-96
2021/06/23 07:10:11;;;;;;;4.82;3.10;;;21.00;1.00;;;;;;5053974;28;20550;-96
2021/06/23 07:12:36;;;;;;;3.95;3.08;;;21.20;1.00;;;;;;5053527;28;20508;-96
2021/06/23 07:15:03;;;;;;;4.97;2.92;;;21.20;1.00;;;;;;5052473;28;20045;-96
2021/06/23 07:17:29;;;;;;;5.03;2.80;;;21.30;1.00;;;;;;5069520;28;20570;-96
2021/06/23 07:19:54;;;;;;;3.50;2.63;;;21.20;1.00;;;;;;5054066;28;20029;-96
2021/06/23 07:22:22;;;;;;;4.90;3.00;;;21.50;1.00;;;;;;5053168;28;20132;-96
2021/06/23 07:24:47;;;;;;;8.70;3.20;;;21.70;1.00;;;;;;5054796;28;20098;-96
2021/06/23 07:27:13;;;;;;;3.70;2.72;;;22.00;1.00;;;;;;5053981;28;20021;-95
2021/06/23 07:29:38;;;;;;;8.32;3.65;;;22.30;1.00;;;;;;5054245;28;20044;-96
2021/06/23 07:32:08;;;;;;;7.45;3.88;;;22.40;1.00;;;;;;5052803;28;20032;-96
2021/06/23 07:37:12;;;;;;;4.88;3.42;;;21.90;1.00;;;;;;5055596;28;20040;-96
2021/06/23 07:39:38;;;;;;;5.38;4.13;;;21.60;1.00;;;;;;5053640;28;20025;-96
2021/06/23 07:42:06;;;;;;;4.30;3.72;;;21.70;1.00;;;;;;5052630;28;20115;-96
2021/06/23 07:44:47;;;;;;;7.65;4.88;;;22.00;1.00;;;;;;5053290;28;20115;-96
2021/06/23 07:47:19;;;;;;;9.52;4.38;;;22.00;1.00;;;;;;5052590;28;20163;-96
2021/06/23 07:49:46;;;;;;;5.85;4.05;;;22.50;1.00;;;;;;5053715;28;20550;-96
2021/06/23 07:54:50;;;;;;;4.53;3.47;;;22.70;1.00;;;;;;5054025;28;20032;-96
2021/06/23 08:10:52;;;;;;;5.97;4.43;;;22.40;1.00;;;;;;5015145;28;20117;-96
2021/06/23 08:13:18;;;;;;;4.95;4.50;;;22.10;1.00;;;;;;5020319;28;20037;-96
2021/06/23 08:15:46;;;;;;;5.25;4.70;;;22.20;1.00;;;;;;5016903;28;20133;-96
2021/06/23 08:18:20;;;;;;;5.22;4.70;;;22.40;1.00;;;;;;5016051;28;20056;-96
2021/06/23 08:20:47;;;;;;;5.53;4.70;;;22.40;1.00;;;;;;5016539;28;20018;-96
2021/06/23 08:23:14;;;;;;;8.95;4.40;;;22.20;1.00;;;;;;5016435;28;20034;-96
2021/06/23 08:25:39;;;;;;;6.57;4.80;;;22.30;1.00;;;;;;5000029;28;20025;-96
2021/06/23 08:28:05;;;;;;;6.38;4.72;;;22.10;1.00;;;;;;5017493;28;20026;-96
2021/06/23 08:30:31;;;;;;;6.32;5.15;;;21.90;1.00;;;;;;4999608;28;20038;-96
2021/06/23 08:32:58;;;;;;;6.45;5.00;;;21.90;1.00;;;;;;5028582;28;20046;-96
2021/06/23 08:35:24;;;;;;;5.60;5.07;;;22.20;1.00;;;;;;5017681;28;20442;-96
2021/06/23 08:37:50;;;;;;;7.63;5.50;;;22.60;1.00;;;;;;5043554;28;20048;-96
2021/06/23 08:40:17;;;;;;;5.50;5.00;;;22.60;1.00;;;;;;5071490;28;20021;-96
2021/06/23 08:42:43;;;;;;;6.45;4.75;;;22.60;1.00;;;;;;5055589;28;20037;-96
2021/06/23 08:45:10;;;;;;;6.03;5.43;;;22.90;1.00;;;;;;5056633;28;20438;-96
2021/06/23 08:47:56;;;;;;;5.82;5.30;;;22.90;1.00;;;;;;5054218;28;20025;-96
2021/06/23 08:50:23;;;;;;;6.05;5.38;;;22.90;1.00;;;;;;5056173;28;20029;-96
2021/06/23 08:52:49;;;;;;;8.20;5.93;;;23.00;1.00;;;;;;5056108;28;20063;-96
2021/06/23 08:55:19;;;;;;;5.60;5.10;;;22.60;99.90;;;;;;5056139;28;20111;-96
2021/06/23 08:57:48;;;;;;;6.88;5.55;;;22.80;1.00;;;;;;5056044;28;20040;-96
2021/06/23 09:00:15;;;;;;;6.45;5.38;;;22.70;1.00;;;;;;5055099;28;20018;-96
2021/06/23 09:02:41;;;;;;;6.57;5.38;;;23.10;1.00;;;;;;5056451;28;20028;-96
2021/06/23 09:05:09;;;;;;;8.02;5.40;;;23.20;99.90;;;;;;5055973;28;20041;-96
2021/06/23 09:07:36;;;;;;;6.97;5.60;;;23.20;99.90;;;;;;5054547;28;20036;-95
2021/06/23 09:10:02;;;;;;;5.47;4.95;;;23.40;99.90;;;;;;5071267;28;20486;-96
2021/06/23 09:12:27;;;;;;;5.50;4.97;;;23.30;99.90;;;;;;5055389;28;20405;-96
2021/06/23 09:14:53;;;;;;;7.07;6.38;;;23.20;99.90;;;;;;5054929;28;20056;-96
2021/06/23 09:17:19;;;;;;;5.60;5.05;;;23.30;99.90;;;;;;5055502;28;20505;-96
2021/06/23 09:19:56;;;;;;;5.65;5.15;;;23.70;99.90;;;;;;5055786;28;20104;-96
2021/06/23 09:22:36;;;;;;;5.90;5.30;;;24.10;99.90;;;;;;5054692;28;20044;-95
2021/06/23 09:25:10;;;;;;;6.03;5.43;;;24.20;99.90;;;;;;5054251;28;20021;-95
2021/06/23 09:27:45;;;;;;;6.97;5.43;;;24.50;99.90;;;;;;5055907;28;20033;-96
2021/06/23 09:30:25;;;;;;;6.43;5.57;;;24.30;99.90;;;;;;5054483;28;20736;-96
2021/06/23 09:33:12;;;;;;;6.85;5.13;;;24.30;99.90;;;;;;5067653;28;20116;-96
2021/06/23 09:35:43;;;;;;;5.32;4.90;;;24.40;99.90;;;;;;5065448;28;20033;-96
2021/06/23 09:38:36;;;;;;;5.80;5.30;;;24.90;99.90;;;;;;5054495;28;20037;-96
2021/06/23 09:41:19;;;;;;;5.28;4.78;;;25.70;99.90;;;;;;5053990;28;20036;-96
2021/06/23 09:43:49;;;;;;;4.60;4.18;;;25.80;99.90;;;;;;5054151;28;20090;-96
2021/06/23 09:46:21;;;;;;;4.20;3.90;;;26.00;99.90;;;;;;5055097;28;20021;-95
2021/06/23 09:48:48;;;;;;;4.50;4.13;;;25.70;99.90;;;;;;5053864;28;20032;-95
2021/06/23 09:51:19;;;;;;;4.78;4.18;;;25.10;99.90;;;;;;5054818;28;20048;-96
2021/06/23 09:53:46;;;;;;;4.90;4.40;;;24.60;99.90;;;;;;5055627;28;20029;-96
2021/06/23 09:56:26;;;;;;;5.53;4.00;;;24.60;99.90;;;;;;5053958;28;20102;-96
2021/06/23 09:58:55;;;;;;;3.83;3.53;;;24.70;99.90;;;;;;5053524;28;20032;-96
2021/06/23 10:01:20;;;;;;;3.72;3.40;;;24.70;99.90;;;;;;5053233;28;20020;-96
2021/06/23 10:03:57;;;;;;;4.50;3.60;;;25.20;99.90;;;;;;5054767;28;20112;-96
2021/06/23 10:06:32;;;;;;;4.43;3.45;;;25.90;99.90;;;;;;5069887;28;20032;-96
2021/06/23 10:09:19;;;;;;;4.55;3.80;;;26.10;99.90;;;;;;5067033;28;20090;-96
2021/06/23 10:11:46;;;;;;;4.07;3.47;;;25.90;99.90;;;;;;5049783;28;20029;-96
2021/06/23 10:14:12;;;;;;;3.75;2.85;;;26.00;99.90;;;;;;5053078;28;20050;-96
2021/06/23 10:16:38;;;;;;;3.05;2.35;;;25.80;99.90;;;;;;5052965;28;20044;-96
2021/06/23 10:19:06;;;;;;;11.10;9.98;;;25.70;99.90;;;;;;5054323;28;20497;-96
2021/06/23 10:21:34;;;;;;;3.58;2.50;;;25.60;99.90;;;;;;5069482;28;20505;-96
2021/06/23 10:24:00;;;;;;;2.55;2.22;;;26.00;99.90;;;;;;5053702;28;20029;-95
2021/06/23 10:26:27;;;;;;;4.40;2.30;;;26.20;99.90;;;;;;5052254;28;20017;-96
2021/06/23 10:28:55;;;;;;;3.22;2.03;;;26.00;99.90;;;;;;5054367;28;20036;-96
2021/06/23 10:31:23;;;;;;;23.17;16.27;;;26.40;99.90;;;;;;5052621;28;20251;-96
2021/06/23 10:33:49;;;;;;;17.33;12.57;;;26.40;99.90;;;;;;5053045;28;20108;-96
2021/06/23 10:36:14;;;;;;;2.90;2.60;;;26.50;99.90;;;;;;5053121;28;20064;-95
2021/06/23 10:38:43;;;;;;;3.75;2.10;;;26.40;99.90;;;;;;5053114;28;20031;-96
2021/06/23 10:41:10;;;;;;;2.97;2.08;;;26.30;99.90;;;;;;5052959;28;20056;-96
2021/06/23 10:43:35;;;;;;;3.28;2.53;;;26.70;99.90;;;;;;5053557;28;20406;-95
2021/06/23 10:46:01;;;;;;;2.00;1.90;;;26.50;99.90;;;;;;5052975;28;20025;-96
2021/06/23 10:48:27;;;;;;;2.60;2.20;;;27.00;99.90;;;;;;5053757;28;20045;-96
2021/06/23 10:50:52;;;;;;;3.40;2.08;;;27.20;99.90;;;;;;5054144;28;20116;-96
2021/06/23 10:53:44;;;;;;;6.15;2.10;;;27.40;99.90;;;;;;5069230;28;20025;-95
2021/06/23 10:56:48;;;;;;;2.10;1.90;;;28.00;99.90;;;;;;5049410;28;20040;-95
2021/06/23 10:59:35;;;;;;;2.42;2.17;;;27.80;99.90;;;;;;5053294;28;20033;-96
2021/06/23 11:02:11;;;;;;;2.67;2.08;;;27.90;99.90;;;;;;5053218;28;20032;-95
2021/06/23 11:04:55;;;;;;;4.35;2.40;;;28.30;99.90;;;;;;5068785;28;20499;-95
2021/06/23 11:07:47;;;;;;;3.55;2.00;;;28.20;99.90;;;;;;5053923;28;20493;-95
2021/06/23 11:10:13;;;;;;;2.67;2.08;;;27.80;99.90;;;;;;5069181;28;20017;-96
2021/06/23 11:12:46;;;;;;;3.10;2.17;;;27.70;99.90;;;;;;5068872;28;20090;-95
2021/06/23 11:15:40;;;;;;;3.20;2.13;;;27.90;99.90;;;;;;5053121;28;20079;-94
2021/06/23 11:18:19;;;;;;;3.35;2.10;;;28.30;99.90;;;;;;5053201;28;20047;-95
2021/06/23 11:20:58;;;;;;;2.25;2.05;;;27.70;99.90;;;;;;5068253;28;20021;-96
2021/06/23 11:23:58;;;;;;;3.58;2.13;;;27.90;99.90;;;;;;5053354;28;20033;-95
2021/06/23 11:26:25;;;;;;;3.42;1.80;;;28.00;99.90;;;;;;5068862;28;20439;-96
2021/06/23 11:28:50;;;;;;;2.10;1.80;;;28.20;99.90;;;;;;5069045;28;20025;-95
2021/06/23 11:31:17;;;;;;;1.88;1.52;;;28.20;99.90;;;;;;5053249;28;20025;-95
2021/06/23 11:33:44;;;;;;;1.95;1.70;;;28.10;99.90;;;;;;5052803;28;20024;-95
2021/06/23 11:36:15;;;;;;;2.20;2.00;;;28.10;99.90;;;;;;5051683;28;20036;-95
2021/06/23 11:38:42;;;;;;;2.13;1.90;;;28.00;99.90;;;;;;5053760;28;20048;-95
2021/06/23 11:41:09;;;;;;;2.78;1.90;;;28.00;99.90;;;;;;5052955;28;20029;-95
2021/06/23 11:43:35;;;;;;;2.80;2.00;;;27.90;99.90;;;;;;5053378;28;20054;-95
2021/06/23 11:46:01;;;;;;;2.50;2.17;;;28.00;99.90;;;;;;5052516;28;20021;-95
2021/06/23 11:48:26;;;;;;;2.38;2.13;;;27.70;99.90;;;;;;5052901;28;20048;-95
2021/06/23 11:50:53;;;;;;;3.15;1.90;;;27.90;99.90;;;;;;5056543;28;20051;-95
2021/06/23 11:53:21;;;;;;;2.75;2.00;;;28.20;99.90;;;;;;5057382;28;20466;-94
2021/06/23 11:55:51;;;;;;;1.88;1.67;;;27.90;99.90;;;;;;5056791;28;20089;-94
2021/06/23 11:58:18;;;;;;;1.90;1.70;;;28.40;99.90;;;;;;5056869;28;20037;-95
2021/06/23 12:00:44;;;;;;;2.10;1.63;;;28.70;99.90;;;;;;5056516;28;20032;-94
2021/06/23 12:03:17;;;;;;;2.40;1.90;;;28.70;99.90;;;;;;5056122;28;20099;-95
2021/06/23 12:05:44;;;;;;;3.30;1.77;;;28.70;99.90;;;;;;5057406;28;20044;-94
2021/06/23 12:08:10;;;;;;;5.60;1.83;;;28.70;99.90;;;;;;5056271;28;20044;-94
2021/06/23 12:10:38;;;;;;;2.20;2.00;;;28.50;99.90;;;;;;5056358;28;20025;-95
2021/06/23 12:13:03;;;;;;;3.58;2.00;;;29.00;99.90;;;;;;5056713;28;20025;-95
2021/06/23 12:15:31;;;;;;;2.95;1.90;;;28.80;99.90;;;;;;5056213;28;20565;-95
2021/06/23 12:17:59;;;;;;;2.00;1.55;;;28.70;99.90;;;;;;5056980;28;20059;-95
2021/06/23 12:20:28;;;;;;;2.10;2.00;;;29.40;99.90;;;;;;5056876;28;20514;-95
2021/06/23 12:22:58;;;;;;;2.72;1.70;;;30.80;99.90;;;;;;5055107;28;20575;-94
2021/06/23 12:25:30;;;;;;;2.00;1.75;;;32.60;99.90;;;;;;5057052;28;20028;-94
2021/06/23 12:27:56;;;;;;;2.03;1.80;;;31.20;99.90;;;;;;5055954;28;20047;-93
2021/06/23 12:30:27;;;;;;;2.30;1.60;;;30.30;99.90;;;;;;5040160;28;20039;-95
2021/06/23 12:32:55;;;;;;;1.77;1.67;;;30.10;99.90;;;;;;5056388;28;20036;-93
2021/06/23 12:35:21;;;;;;;1.65;1.48;;;29.90;99.90;;;;;;5056047;28;20033;-94
2021/06/23 12:37:46;;;;;;;2.17;1.52;;;29.90;99.90;;;;;;5056047;28;20043;-93
2021/06/23 12:40:12;;;;;;;2.33;1.63;;;29.90;99.90;;;;;;5072434;28;20036;-94
2021/06/23 12:42:38;;;;;;;1.60;1.50;;;29.00;99.90;;;;;;5056300;28;20052;-94
2021/06/23 12:45:04;;;;;;;3.17;1.50;;;28.80;99.90;;;;;;5055946;28;20519;-95
2021/06/23 12:47:30;;;;;;;1.83;1.30;;;28.80;99.90;;;;;;5055309;28;20025;-95
2021/06/23 12:49:56;;;;;;;1.60;1.33;;;29.30;99.90;;;;;;5054437;28;20079;-93
2021/06/23 12:52:21;;;;;;;2.58;1.30;;;30.60;99.90;;;;;;5055027;28;20025;-94
2021/06/23 12:54:47;;;;;;;2.20;1.50;;;31.50;99.90;;;;;;5055900;28;20025;-94
2021/06/23 12:57:13;;;;;;;2.03;1.60;;;33.30;99.90;;;;;;5054559;28;20029;-94
2021/06/23 12:59:39;;;;;;;3.90;1.55;;;33.10;99.90;;;;;;5054598;28;20025;-95
2021/06/23 13:02:05;;;;;;;2.35;1.60;;;33.20;99.90;;;;;;5054241;28;20070;-94
2021/06/23 13:04:30;;;;;;;1.98;1.50;;;33.70;99.90;;;;;;5054806;28;20055;-94
2021/06/23 13:06:56;;;;;;;1.73;1.20;;;33.40;99.90;;;;;;5055796;28;20074;-94
2021/06/23 13:09:22;;;;;;;2.97;1.58;;;33.70;99.90;;;;;;5055255;28;20397;-93
2021/06/23 13:11:47;;;;;;;4.57;1.40;;;34.40;99.90;;;;;;5055806;28;20496;-94
2021/06/23 13:14:13;;;;;;;1.88;1.30;;;34.30;99.90;;;;;;5054842;28;20049;-95
2021/06/23 13:16:39;;;;;;;2.25;1.40;;;35.40;99.90;;;;;;5070374;28;20037;-94